Time;durP1;ratioP1;P1;durP2;ratioP2;P2;SDS_P1;SDS_P2;PMS_P1;PMS_P2;Temp;Humidity;BMP_temperature;BMP_pressure;BME280_temperature;BME280_humidity;BME280_pressure;Samples;Min_cycle;Max_cycle;Signal;HPM_P1;HPM_P2
2022/07/18 00:02:28;;;;;;;2.38;1.25;;;;;;;27.16;23.28;101985.19;5043979;28;20049;-83
2022/07/18 00:05:00;;;;;;;4.75;1.60;;;;;;;27.16;23.70;101987.09;5034401;28;20511;-84
2022/07/18 00:07:30;;;;;;;3.75;1.55;;;;;;;27.13;23.32;101987.47;5045005;28;20066;-85
2022/07/18 00:10:01;;;;;;;3.35;1.60;;;;;;;27.11;23.35;101981.19;5043524;28;20064;-84
2022/07/18 00:12:32;;;;;;;3.78;1.73;;;;;;;27.10;23.88;101988.69;5043370;28;20059;-84
2022/07/18 00:15:01;;;;;;;2.88;1.40;;;;;;;27.06;23.54;101983.66;5044116;28;20040;-83
2022/07/18 00:17:29;;;;;;;3.42;1.55;;;;;;;27.02;23.18;101988.72;5040325;28;20045;-85
2022/07/18 00:19:57;;;;;;;2.90;1.48;;;;;;;27.01;23.68;101986.16;5037904;28;20143;-84
2022/07/18 00:22:25;;;;;;;4.50;1.50;;;;;;;26.99;23.70;101997.47;5038863;28;20079;-86
2022/07/18 00:24:53;;;;;;;2.53;1.40;;;;;;;26.97;23.81;101990.34;5036783;28;20485;-84
2022/07/18 00:27:21;;;;;;;3.90;1.40;;;;;;;26.90;23.98;101984.59;5031113;28;20064;-85
2022/07/18 00:29:49;;;;;;;3.72;1.73;;;;;;;26.91;24.09;101993.84;5035971;28;20037;-85
2022/07/18 00:32:20;;;;;;;3.58;1.73;;;;;;;26.87;24.19;101984.94;5068600;28;20095;-84
2022/07/18 00:34:48;;;;;;;2.78;1.80;;;;;;;26.83;24.22;101987.25;5049864;28;20052;-86
2022/07/18 00:37:16;;;;;;;2.67;1.38;;;;;;;26.82;24.08;101987.41;5068838;28;20415;-85
2022/07/18 00:39:44;;;;;;;2.92;1.50;;;;;;;26.79;24.20;101985.84;5046104;28;20373;-86
2022/07/18 00:42:17;;;;;;;3.78;1.65;;;;;;;26.75;24.40;101991.97;5041308;28;20045;-83
2022/07/18 00:45:11;;;;;;;4.32;1.80;;;;;;;26.75;24.59;101986.41;5036954;28;20132;-84
2022/07/18 00:48:11;;;;;;;4.35;1.60;;;;;;;26.70;24.69;101980.50;5035651;28;20049;-83
2022/07/18 00:50:44;;;;;;;3.20;1.50;;;;;;;26.66;24.78;101980.00;5037439;28;20044;-84
2022/07/18 00:53:16;;;;;;;2.92;1.65;;;;;;;26.62;24.49;101975.81;5038672;28;20139;-83
2022/07/18 00:55:54;;;;;;;3.78;1.60;;;;;;;26.59;24.73;101964.19;5031683;28;20049;-84
2022/07/18 00:58:28;;;;;;;3.17;1.52;;;;;;;26.57;24.70;101967.16;5026204;28;20041;-85
2022/07/18 01:38:50;;;;;;;3.90;1.55;;;;;;;25.85;25.55;101962.59;4774752;30;20093;-81
2022/07/18 01:41:28;;;;;;;2.72;1.45;;;;;;;25.87;26.19;101960.50;4755546;30;20059;-82
2022/07/18 01:43:59;;;;;;;2.85;1.52;;;;;;;25.81;25.36;101961.22;4787173;30;20416;-82
2022/07/18 01:46:33;;;;;;;4.53;1.67;;;;;;;25.82;25.79;101963.81;4787858;30;20055;-82
2022/07/18 01:49:03;;;;;;;3.05;1.60;;;;;;;25.77;25.78;101957.94;4786824;29;20051;-83
2022/07/18 01:51:33;;;;;;;4.18;1.70;;;;;;;25.78;25.55;101967.97;4786191;29;20066;-83
2022/07/18 01:54:01;;;;;;;4.55;1.65;;;;;;;25.75;25.59;101965.56;4802254;29;20050;-84
2022/07/18 01:56:33;;;;;;;4.18;1.77;;;;;;;25.71;25.65;101966.94;4803612;29;20046;-85
2022/07/18 01:59:02;;;;;;;3.35;1.70;;;;;;;25.70;25.80;101960.50;4818679;29;20122;-83
2022/07/18 02:01:33;;;;;;;3.72;1.70;;;;;;;25.70;25.86;101970.75;4840719;29;20069;-83
2022/07/18 02:04:02;;;;;;;5.25;1.67;;;;;;;25.64;25.90;101969.56;4859492;29;20053;-84
2022/07/18 02:06:32;;;;;;;6.22;1.67;;;;;;;25.62;26.27;101959.63;4887402;29;20127;-83
2022/07/18 02:09:01;;;;;;;3.13;1.42;;;;;;;25.60;26.20;101961.75;4917267;29;20631;-84
2022/07/18 02:11:29;;;;;;;3.45;1.83;;;;;;;25.58;26.42;101967.44;4954480;29;20047;-84
2022/07/18 02:14:02;;;;;;;3.20;1.63;;;;;;;25.56;26.72;101958.41;4942203;28;20047;-82
2022/07/18 02:16:30;;;;;;;;;;;;;;;25.25;26.57;101962.91;4938560;29;20050;-84
2022/07/18 02:19:00;;;;;;;3.33;1.63;;;;;;;25.47;26.33;101967.78;4952869;28;19922;-82
2022/07/18 02:21:38;;;;;;;3.38;1.75;;;;;;;25.47;26.50;101955.78;4944961;28;20125;-83
2022/07/18 02:24:08;;;;;;;3.95;1.52;;;;;;;25.46;26.46;101951.25;4978411;28;20051;-84
2022/07/18 02:26:43;;;;;;;3.90;1.60;;;;;;;25.37;26.90;101951.25;4981467;28;20047;-83
2022/07/18 02:29:11;;;;;;;3.58;1.40;;;;;;;25.37;26.61;101956.81;4982935;28;20043;-83
2022/07/18 02:31:42;;;;;;;2.85;1.40;;;;;;;25.30;27.08;101950.22;4993014;28;20039;-84
2022/07/18 02:34:11;;;;;;;2.80;1.42;;;;;;;25.29;26.62;101954.03;4991665;28;20093;-83
2022/07/18 02:36:43;;;;;;;3.35;1.75;;;;;;;25.28;27.39;101949.50;4977059;28;20512;-83
2022/07/18 02:39:14;;;;;;;3.97;1.67;;;;;;;25.23;26.99;101946.38;4993068;28;20409;-83
2022/07/18 02:41:45;;;;;;;2.97;1.55;;;;;;;25.19;26.51;101947.78;4990143;28;20049;-84
2022/07/18 02:44:16;;;;;;;3.63;1.60;;;;;;;25.18;27.02;101945.16;5014993;28;20041;-83
2022/07/18 02:46:47;;;;;;;3.88;1.40;;;;;;;25.15;26.97;101946.38;4998664;28;20285;-83
2022/07/18 02:49:27;;;;;;;3.13;1.55;;;;;;;25.16;27.42;101953.66;4994962;28;20047;-84
2022/07/18 02:52:00;;;;;;;4.13;1.45;;;;;;;25.15;27.04;101953.84;4997134;28;20590;-83
2022/07/18 02:54:32;;;;;;;3.95;1.52;;;;;;;25.15;27.37;101948.28;4973507;28;20246;-84
2022/07/18 02:57:00;;;;;;;2.77;1.67;;;;;;;25.13;26.99;101947.56;5003552;28;20049;-85
2022/07/18 02:59:31;;;;;;;2.72;1.52;;;;;;;25.13;27.26;101944.78;5034551;28;20041;-83
2022/07/18 03:02:05;;;;;;;3.95;1.55;;;;;;;25.15;27.63;101949.16;5044488;28;20045;-83
2022/07/18 03:04:36;;;;;;;3.15;1.60;;;;;;;25.11;27.16;101945.00;5057178;28;20037;-82
2022/07/18 03:07:06;;;;;;;4.20;1.70;;;;;;;25.08;27.53;101948.09;5041288;28;20049;-82
2022/07/18 03:09:36;;;;;;;3.78;1.80;;;;;;;25.10;27.73;101945.16;5038806;28;20115;-82
2022/07/18 03:12:05;;;;;;;3.50;1.60;;;;;;;25.05;27.57;101953.97;5083207;28;20048;-83
2022/07/18 03:14:34;;;;;;;2.10;1.30;;;;;;;25.02;27.48;101949.66;5045760;28;20048;-86
2022/07/18 03:17:03;;;;;;;2.78;1.50;;;;;;;24.99;27.44;101938.00;5043183;28;20053;-84
2022/07/18 03:19:32;;;;;;;2.42;1.30;;;;;;;24.97;27.62;101946.50;5050774;28;20056;-84
2022/07/18 03:22:05;;;;;;;3.65;1.67;;;;;;;24.96;27.96;101944.75;5049718;28;20059;-82
2022/07/18 03:24:38;;;;;;;3.42;2.03;;;;;;;24.94;28.21;101940.44;5021395;28;20049;-86
2022/07/18 03:27:06;;;;;;;3.70;1.70;;;;;;;24.90;28.26;101939.84;5033046;28;20088;-86
2022/07/18 03:29:34;;;;;;;3.15;1.50;;;;;;;24.89;28.27;101935.34;5038138;28;20314;-86
2022/07/18 03:32:03;;;;;;;3.03;1.63;;;;;;;24.85;28.11;101936.72;5040722;28;20045;-86
2022/07/18 03:34:31;;;;;;;3.95;1.65;;;;;;;24.84;28.17;101926.66;5036547;28;20504;-85
2022/07/18 03:41:51;;;;;;;4.38;1.38;;;;;;;24.76;28.81;101928.53;5027741;28;20052;-85
2022/07/18 03:49:04;;;;;;;2.50;1.40;;;;;;;24.64;28.78;101923.28;5007870;28;20044;-85
2022/07/18 03:51:49;;;;;;;2.40;1.30;;;;;;;24.60;28.63;101929.34;5028864;28;20133;-85
2022/07/18 04:57:50;;;;;;;4.60;1.50;;;;;;;24.16;28.83;101923.91;4773486;29;20717;-84
2022/07/18 05:00:21;;;;;;;2.70;1.40;;;;;;;24.22;28.44;101923.25;4794256;29;20043;-84
2022/07/18 05:02:50;;;;;;;3.10;1.50;;;;;;;24.23;28.71;101918.59;4811423;29;20127;-84
2022/07/18 05:05:22;;;;;;;3.67;1.50;;;;;;;24.29;28.84;101919.84;4905478;29;20173;-85
2022/07/18 05:07:51;;;;;;;2.53;1.42;;;;;;;24.26;28.44;101919.13;4896500;29;20053;-85
2022/07/18 05:10:24;;;;;;;2.55;1.30;;;;;;;24.35;28.35;101919.19;4877996;29;20048;-84
2022/07/18 05:12:55;;;;;;;2.28;1.30;;;;;;;24.38;28.87;101919.69;4893744;29;20063;-84
2022/07/18 05:15:24;;;;;;;2.97;1.30;;;;;;;24.43;28.44;101922.88;4876789;29;20044;-84
2022/07/18 05:38:45;;;;;;;3.33;1.67;;;;;;;25.40;28.37;101922.25;4861179;29;20065;-83
2022/07/18 05:41:21;;;;;;;3.03;1.30;;;;;;;25.59;28.13;101921.06;4860070;29;20468;-83
2022/07/18 05:43:57;;;;;;;3.88;1.40;;;;;;;25.81;28.05;101923.13;4859032;29;20135;-83
2022/07/18 05:46:35;;;;;;;3.08;1.30;;;;;;;26.05;27.41;101917.50;4844217;29;20053;-86
2022/07/18 05:49:17;;;;;;;3.92;1.48;;;;;;;26.24;27.58;101919.03;4870152;29;20052;-83
2022/07/18 05:51:58;;;;;;;2.55;1.40;;;;;;;26.46;27.07;101909.03;4882992;29;20045;-84
2022/07/18 05:54:32;;;;;;;3.10;1.30;;;;;;;26.70;27.15;101916.41;4876572;29;20049;-84
2022/07/18 05:57:07;;;;;;;3.17;1.38;;;;;;;26.88;26.65;101900.28;4887213;29;20044;-83
2022/07/18 05:59:37;;;;;;;1.77;1.10;;;;;;;27.06;26.08;101905.63;4911271;29;20231;-83
2022/07/18 06:02:05;;;;;;;2.15;1.30;;;;;;;27.24;26.32;101897.81;4921625;29;20056;-83
2022/07/18 06:04:37;;;;;;;2.45;1.30;;;;;;;27.40;25.71;101900.47;4928195;29;20039;-84
2022/07/18 06:07:38;;;;;;;3.00;1.30;;;;;;;27.57;25.58;101901.22;4995007;28;20100;-85
2022/07/18 06:10:19;;;;;;;2.30;1.35;;;;;;;27.76;25.07;101900.66;5010299;28;20133;-86
2022/07/18 06:12:51;;;;;;;2.72;1.35;;;;;;;27.88;24.83;101901.09;5049873;28;20076;-85
2022/07/18 06:15:26;;;;;;;3.25;1.15;;;;;;;27.99;24.62;101904.28;5056330;28;20050;-86
2022/07/18 06:17:55;;;;;;;1.55;1.13;;;;;;;28.11;24.47;101895.41;5052093;28;20092;-79
2022/07/18 06:20:23;;;;;;;2.80;1.30;;;;;;;28.23;24.36;101897.59;5071495;28;20045;-79
2022/07/18 06:22:51;;;;;;;3.13;1.10;;;;;;;28.33;24.47;101900.94;5074750;28;20045;-79
2022/07/18 06:25:20;;;;;;;3.40;1.10;;;;;;;28.47;24.18;101895.53;5056732;28;20033;-84
2022/07/18 06:27:48;;;;;;;1.48;0.93;;;;;;;28.51;24.37;101888.47;5074863;28;20079;-85
2022/07/18 06:30:27;;;;;;;;;;;;;;;;;;;;;
2022/07/18 06:32:58;;;;;;;3.55;0.90;;;;;;;28.70;23.91;101891.53;5057461;28;20055;-83
2022/07/18 06:35:27;;;;;;;3.05;1.15;;;;;;;28.80;23.86;101894.06;5079650;28;20052;-84
2022/07/18 06:38:02;;;;;;;3.05;1.17;;;;;;;28.87;23.73;101888.53;5067524;28;20053;-84
2022/07/18 06:40:35;;;;;;;2.22;1.00;;;;;;;28.97;23.34;101892.75;5046919;28;20049;-84
2022/07/18 06:43:19;;;;;;;3.13;1.40;;;;;;;29.03;23.54;101879.91;5045951;28;20052;-84
2022/07/18 06:45:51;;;;;;;3.20;1.17;;;;;;;29.11;23.00;101877.84;5037683;28;20063;-83
2022/07/18 06:48:20;;;;;;;2.83;1.20;;;;;;;29.17;22.83;101875.31;5048297;28;20261;-83
2022/07/18 06:50:53;;;;;;;2.05;1.10;;;;;;;29.22;22.79;101882.06;5053778;28;20075;-83
2022/07/18 06:53:21;;;;;;;3.55;1.10;;;;;;;29.26;22.91;101883.38;5065031;28;20083;-83
2022/07/18 06:55:53;;;;;;;2.40;1.08;;;;;;;29.35;22.94;101889.69;5067709;28;20044;-83
2022/07/18 06:58:22;;;;;;;3.08;1.20;;;;;;;29.39;22.99;101885.47;5038252;28;20040;-83
2022/07/18 07:04:04;;;;;;;2.30;1.30;;;;;;;29.50;22.48;101888.56;5056678;28;20099;-82
2022/07/18 07:07:17;;;;;;;3.22;1.15;;;;;;;29.60;22.50;101882.63;5069374;28;20094;-83
2022/07/18 07:09:50;;;;;;;3.78;1.23;;;;;;;29.67;22.41;101877.97;5037996;28;20086;-84
2022/07/18 07:33:44;;;;;;;2.13;1.00;;;;;;;30.35;22.08;101878.22;4999435;23;19924;-73
2022/07/18 07:36:12;;;;;;;2.78;1.10;;;;;;;30.46;21.72;101870.09;5069528;28;20045;-72
2022/07/18 07:38:40;;;;;;;4.47;1.10;;;;;;;30.56;21.68;101867.78;5043988;28;20057;-72
2022/07/18 07:41:08;;;;;;;3.10;1.10;;;;;;;30.64;21.53;101873.19;5043338;28;20091;-72
2022/07/18 07:43:38;;;;;;;2.65;0.98;;;;;;;30.73;21.55;101865.47;5025798;28;20056;-72
2022/07/18 07:46:06;;;;;;;2.35;0.98;;;;;;;30.83;21.42;101863.13;5067150;28;20044;-72
2022/07/18 07:48:34;;;;;;;3.03;1.42;;;;;;;30.91;21.27;101862.94;5067435;28;20063;-72
2022/07/18 07:51:04;;;;;;;3.72;1.48;;;;;;;31.03;21.12;101866.00;5051836;28;20049;-72
2022/07/18 07:53:32;;;;;;;2.92;1.27;;;;;;;31.10;21.08;101855.69;5052263;28;20039;-72
2022/07/18 07:56:00;;;;;;;4.43;1.30;;;;;;;31.21;20.87;101857.88;5049266;28;20037;-72
2022/07/18 07:58:28;;;;;;;2.35;1.20;;;;;;;31.30;21.02;101859.38;5039453;28;20036;-72
2022/07/18 08:00:56;;;;;;;2.25;1.27;;;;;;;31.41;21.19;101855.06;5056034;28;20036;-73
2022/07/18 08:03:24;;;;;;;4.43;1.20;;;;;;;31.52;20.89;101847.94;5050884;28;20039;-72
2022/07/18 08:05:52;;;;;;;3.47;1.30;;;;;;;31.63;20.96;101847.31;5055610;28;20037;-72
2022/07/18 08:08:21;;;;;;;2.97;1.58;;;;;;;31.78;20.56;101849.91;5027886;28;20045;-72
2022/07/18 08:10:49;;;;;;;3.00;1.30;;;;;;;31.87;20.72;101848.59;5034037;28;20038;-72
2022/07/18 08:13:17;;;;;;;2.90;1.17;;;;;;;31.98;20.35;101853.53;5051136;28;20043;-72
2022/07/18 08:15:45;;;;;;;2.03;1.10;;;;;;;32.09;20.51;101856.53;5027145;28;20099;-72
2022/07/18 08:18:13;;;;;;;2.10;1.17;;;;;;;32.21;20.04;101856.72;5049015;28;20037;-72
2022/07/18 08:20:41;;;;;;;2.75;1.10;;;;;;;32.31;20.01;101859.06;5062422;28;20044;-72
2022/07/18 08:23:11;;;;;;;2.55;1.10;;;;;;;32.42;19.95;101864.03;5047767;28;20044;-72
2022/07/18 08:25:42;;;;;;;2.83;1.10;;;;;;;32.54;19.64;101855.75;5038896;28;20065;-72
2022/07/18 08:28:10;;;;;;;2.13;1.25;;;;;;;32.60;19.54;101855.72;5042350;28;20045;-72
2022/07/18 08:30:40;;;;;;;2.33;1.20;;;;;;;32.69;19.58;101854.44;5047414;28;20095;-73
2022/07/18 08:33:08;;;;;;;2.83;1.10;;;;;;;32.80;19.31;101850.00;5032366;28;20038;-73
2022/07/18 08:35:37;;;;;;;2.40;1.20;;;;;;;32.87;19.08;101846.06;5054715;28;20044;-73
2022/07/18 08:38:06;;;;;;;2.58;1.23;;;;;;;32.97;18.92;101845.59;5069323;28;20378;-73
2022/07/18 08:40:35;;;;;;;2.33;1.15;;;;;;;33.05;19.00;101847.25;5048559;28;20045;-72
2022/07/18 08:43:04;;;;;;;2.63;1.35;;;;;;;33.15;18.78;101842.88;5048237;28;20075;-73
2022/07/18 08:45:53;;;;;;;3.47;1.20;;;;;;;33.24;18.88;101840.66;5066873;28;20071;-73
2022/07/18 08:48:21;;;;;;;3.03;0.95;;;;;;;33.31;18.58;101837.78;5077772;28;20106;-72
2022/07/18 08:50:50;;;;;;;1.42;0.85;;;;;;;33.40;18.74;101842.06;5057877;28;20127;-72
2022/07/18 08:53:19;;;;;;;2.70;1.20;;;;;;;33.50;18.57;101836.78;5052796;28;20151;-72
2022/07/18 08:55:48;;;;;;;1.90;1.00;;;;;;;33.56;18.24;101831.09;5057581;28;20532;-73
2022/07/18 08:58:18;;;;;;;2.95;1.00;;;;;;;33.68;18.11;101835.97;5052997;28;20044;-72
2022/07/18 09:01:06;;;;;;;3.00;1.05;;;;;;;33.74;18.11;101838.75;5062771;28;20143;-73
2022/07/18 09:03:34;;;;;;;2.15;1.05;;;;;;;33.85;18.35;101837.97;5063025;28;20451;-73
2022/07/18 09:06:07;;;;;;;2.60;1.10;;;;;;;33.97;17.87;101846.53;5032059;28;20417;-73
2022/07/18 09:08:37;;;;;;;2.72;1.15;;;;;;;34.04;18.36;101843.63;5047933;28;20049;-72
2022/07/18 09:11:10;;;;;;;2.20;1.10;;;;;;;34.16;17.44;101830.50;5029835;28;20037;-73
2022/07/18 09:13:59;;;;;;;3.28;1.20;;;;;;;34.22;17.65;101847.31;5061624;28;20060;-72
2022/07/18 09:16:27;;;;;;;3.03;1.20;;;;;;;34.29;17.94;101845.31;5057134;28;20052;-73
2022/07/18 09:18:55;;;;;;;2.72;1.17;;;;;;;34.38;17.63;101843.03;5049543;28;20317;-72
2022/07/18 09:21:24;;;;;;;1.77;1.10;;;;;;;34.49;17.56;101850.72;5055529;28;20405;-72
2022/07/18 09:23:55;;;;;;;2.15;1.00;;;;;;;34.56;17.79;101837.38;5048118;28;20049;-73
2022/07/18 09:26:38;;;;;;;2.97;1.00;;;;;;;34.67;17.34;101832.91;5061841;22;20125;-70
2022/07/18 09:29:09;;;;;;;1.88;1.00;;;;;;;34.77;17.65;101837.97;5051072;28;20505;-70
2022/07/18 09:31:55;;;;;;;2.70;1.10;;;;;;;34.85;17.10;101843.28;5065589;28;20091;-71
2022/07/18 09:34:33;;;;;;;1.77;1.10;;;;;;;34.97;17.20;101836.59;5072348;28;20071;-73
2022/07/18 09:37:02;;;;;;;2.53;1.23;;;;;;;35.01;17.07;101835.00;5068492;28;20416;-73
2022/07/18 09:39:30;;;;;;;3.08;1.13;;;;;;;35.10;16.15;101847.69;5066933;28;20602;-70
2022/07/18 09:42:13;;;;;;;2.17;1.10;;;;;;;35.20;16.57;101849.94;5077262;28;20442;-73
2022/07/18 09:44:43;;;;;;;2.78;0.95;;;;;;;35.28;16.89;101845.91;5067518;28;20091;-73
2022/07/18 09:47:10;;;;;;;2.63;1.05;;;;;;;35.32;16.67;101836.75;5079238;28;20064;-73
2022/07/18 09:49:40;;;;;;;3.47;1.00;;;;;;;35.40;16.92;101838.34;5084148;28;20439;-73
2022/07/18 09:52:10;;;;;;;2.63;0.93;;;;;;;35.48;16.14;101819.06;5068850;28;20136;-73
2022/07/18 09:54:42;;;;;;;2.00;0.93;;;;;;;35.59;16.15;101822.13;5061504;28;20059;-73
2022/07/18 09:57:11;;;;;;;4.15;1.00;;;;;;;35.64;15.85;101819.44;5072138;28;20049;-73
2022/07/18 09:59:39;;;;;;;4.45;1.25;;;;;;;35.71;15.79;101820.19;5069911;28;20040;-72
2022/07/18 10:02:17;;;;;;;2.25;1.17;;;;;;;35.81;15.65;101818.50;5078069;28;20039;-73
2022/07/18 10:04:45;;;;;;;2.30;1.10;;;;;;;35.85;15.14;101813.19;5071247;28;20849;-73
2022/07/18 10:07:13;;;;;;;1.80;1.08;;;;;;;35.91;15.24;101814.19;5076277;28;20131;-72
2022/07/18 10:09:44;;;;;;;1.35;0.98;;;;;;;35.96;15.28;101809.50;5071129;28;20086;-72
2022/07/18 10:12:15;;;;;;;2.27;1.10;;;;;;;36.02;15.37;101816.13;5068947;28;20512;-69
2022/07/18 10:14:44;;;;;;;5.10;1.30;;;;;;;36.06;15.36;101821.06;5052917;28;20135;-72
2022/07/18 10:17:13;;;;;;;2.60;1.05;;;;;;;36.14;15.19;101814.16;5071545;28;20044;-73
2022/07/18 10:19:42;;;;;;;2.90;1.25;;;;;;;36.22;15.26;101819.47;5070704;28;20036;-74
2022/07/18 10:22:10;;;;;;;3.42;1.17;;;;;;;36.25;14.81;101816.13;5071026;28;20128;-73
2022/07/18 10:24:41;;;;;;;2.50;1.20;;;;;;;36.33;15.33;101824.22;5077386;28;20041;-72
2022/07/18 10:27:14;;;;;;;1.80;1.13;;;;;;;36.41;14.80;101823.81;5071078;28;20102;-74
2022/07/18 10:30:10;;;;;;;2.70;1.30;;;;;;;36.47;14.52;101819.16;5071489;28;20044;-73
2022/07/18 10:32:38;;;;;;;4.07;1.20;;;;;;;36.51;15.04;101815.53;5074219;28;20025;-73
2022/07/18 10:35:10;;;;;;;2.95;1.10;;;;;;;36.64;14.68;101814.41;5070369;28;20048;-74
2022/07/18 10:37:39;;;;;;;2.50;1.20;;;;;;;36.70;14.90;101819.09;5071745;28;20041;-73
2022/07/18 10:40:27;;;;;;;2.38;1.20;;;;;;;36.81;13.87;101811.66;5070279;28;20107;-73
2022/07/18 10:43:29;;;;;;;1.83;1.00;;;;;;;36.88;13.96;101810.38;5069267;28;20115;-72
2022/07/18 10:45:58;;;;;;;2.42;1.30;;;;;;;36.95;14.38;101813.06;5065135;28;20098;-73
2022/07/18 10:48:57;;;;;;;3.38;1.10;;;;;;;37.02;14.22;101810.91;5071344;28;20401;-74
2022/07/18 10:51:34;;;;;;;2.70;1.13;;;;;;;37.18;14.10;101812.94;4977149;28;20073;-73
2022/07/18 10:54:11;;;;;;;2.42;1.17;;;;;;;37.28;13.26;101806.59;5056668;28;20049;-73
2022/07/18 10:57:11;;;;;;;2.53;1.30;;;;;;;37.33;14.28;101806.69;5072442;28;20047;-72
2022/07/18 11:00:01;;;;;;;4.25;1.30;;;;;;;37.40;14.10;101809.34;5062558;28;20068;-73
2022/07/18 11:02:34;;;;;;;1.65;0.95;;;;;;;37.51;13.21;101803.59;5071781;28;20036;-73
2022/07/18 11:05:02;;;;;;;2.05;1.20;;;;;;;37.56;13.63;101797.13;5068838;28;20048;-71
2022/07/18 11:07:31;;;;;;;3.47;1.30;;;;;;;37.67;14.04;101808.41;5070216;28;20044;-71
2022/07/18 11:10:01;;;;;;;1.92;1.20;;;;;;;37.75;13.88;101804.28;5069025;28;20053;-71
2022/07/18 11:12:31;;;;;;;3.63;1.33;;;;;;;37.84;13.28;101807.53;5071367;28;20040;-73
2022/07/18 11:15:01;;;;;;;2.53;1.30;;;;;;;37.91;12.94;101806.22;5068473;28;20090;-71
2022/07/18 11:18:04;;;;;;;3.17;1.20;;;;;;;37.98;12.73;101800.34;5070389;28;20055;-71
2022/07/18 11:20:41;;;;;;;2.72;1.45;;;;;;;38.07;12.64;101793.13;5057127;28;20442;-68
2022/07/18 11:23:20;;;;;;;3.08;1.50;;;;;;;38.13;12.63;101794.94;5070039;28;20036;-68
2022/07/18 11:25:50;;;;;;;2.25;1.30;;;;;;;38.17;13.24;101795.25;5068871;28;20036;-68
2022/07/18 11:28:26;;;;;;;3.17;1.30;;;;;;;38.21;12.87;101788.81;5069303;28;20083;-69
2022/07/18 11:31:01;;;;;;;3.42;1.17;;;;;;;38.29;12.92;101787.50;5064873;28;20045;-69
2022/07/18 11:33:32;;;;;;;2.35;1.25;;;;;;;38.30;12.47;101784.38;5065100;28;20044;-69
2022/07/18 11:36:04;;;;;;;2.50;1.30;;;;;;;38.37;12.35;101787.03;5069416;28;20200;-69
2022/07/18 11:38:34;;;;;;;3.13;1.40;;;;;;;38.40;12.63;101777.97;5070783;28;20090;-70
2022/07/18 11:41:04;;;;;;;3.22;1.40;;;;;;;38.41;12.10;101768.31;5069616;28;20066;-69
2022/07/18 11:43:33;;;;;;;2.05;1.10;;;;;;;38.41;12.62;101765.50;5069611;28;20403;-70
2022/07/18 11:46:03;;;;;;;1.98;1.10;;;;;;;38.43;12.45;101769.78;5068450;28;20394;-69
2022/07/18 11:48:32;;;;;;;4.40;1.20;;;;;;;38.41;12.10;101766.34;5069045;28;20036;-70
2022/07/18 11:51:01;;;;;;;2.17;1.20;;;;;;;38.45;12.14;101761.00;5069032;28;20083;-70
2022/07/18 11:53:29;;;;;;;3.88;1.50;;;;;;;38.45;12.80;101759.03;5069174;28;20086;-70
2022/07/18 11:56:05;;;;;;;3.10;1.65;;;;;;;38.52;12.34;101756.00;5068646;28;20431;-69
2022/07/18 11:58:36;;;;;;;4.72;1.38;;;;;;;38.55;12.21;101758.28;5072018;28;20040;-70
2022/07/18 12:01:06;;;;;;;3.28;1.40;;;;;;;38.56;12.18;101754.34;5060903;28;20081;-69
2022/07/18 12:03:35;;;;;;;3.03;1.33;;;;;;;38.59;13.01;101747.28;5068771;28;20048;-69
2022/07/18 12:06:11;;;;;;;2.42;1.30;;;;;;;38.67;12.89;101747.66;5050823;28;20050;-69
2022/07/18 12:08:41;;;;;;;2.63;1.50;;;;;;;38.70;12.49;101743.44;5068725;28;20463;-70
2022/07/18 12:11:14;;;;;;;2.25;1.20;;;;;;;38.74;12.00;101739.78;5068046;28;20483;-69
2022/07/18 12:13:48;;;;;;;2.20;1.33;;;;;;;38.78;12.10;101743.81;5068030;28;20355;-69
2022/07/18 12:16:28;;;;;;;4.28;1.38;;;;;;;38.79;12.30;101736.97;5069563;28;20040;-70
2022/07/18 12:18:58;;;;;;;2.92;1.30;;;;;;;38.80;12.51;101732.16;5047738;28;20052;-69
2022/07/18 12:21:40;;;;;;;2.90;1.40;;;;;;;38.82;12.71;101727.06;5050145;28;20041;-68
2022/07/18 12:24:39;;;;;;;2.55;1.50;;;;;;;38.73;12.92;101723.88;5048419;28;20040;-69
2022/07/18 12:27:16;;;;;;;3.08;1.40;;;;;;;38.81;12.71;101717.69;5058796;28;20045;-69
2022/07/18 12:30:05;;;;;;;2.75;1.40;;;;;;;38.78;12.66;101721.09;5067111;28;20047;-69
2022/07/18 12:32:55;;;;;;;2.55;1.42;;;;;;;38.76;13.01;101714.81;5064279;28;20059;-70
2022/07/18 12:35:27;;;;;;;3.65;1.60;;;;;;;38.77;12.57;101721.34;5088300;28;20291;-69
2022/07/18 12:37:57;;;;;;;3.72;1.52;;;;;;;38.76;12.39;101711.97;5071600;28;20408;-69
2022/07/18 12:40:28;;;;;;;2.45;1.20;;;;;;;38.77;12.62;101710.84;5051980;28;20050;-70
2022/07/18 12:43:09;;;;;;;3.50;1.42;;;;;;;38.77;12.98;101705.19;5069011;28;20045;-69
2022/07/18 12:45:38;;;;;;;2.38;1.48;;;;;;;38.77;12.33;101704.31;5068110;28;20467;-69
2022/07/18 12:48:10;;;;;;;3.13;1.35;;;;;;;38.80;12.86;101701.78;5075890;28;20067;-69
2022/07/18 12:50:38;;;;;;;;;;;;;;;38.50;12.90;101698.66;5088857;28;20048;-70
2022/07/18 12:53:06;;;;;;;3.42;1.33;;;;;;;38.78;12.32;101712.56;5088864;28;19975;-69
2022/07/18 12:55:35;;;;;;;3.38;1.40;;;;;;;38.83;12.45;101691.88;5087414;28;20071;-69
2022/07/18 12:58:05;;;;;;;3.08;1.33;;;;;;;38.85;12.27;101689.63;5088147;28;20048;-70
2022/07/18 13:00:34;;;;;;;3.13;1.50;;;;;;;38.87;12.07;101690.22;5088002;28;20051;-68
2022/07/18 13:03:02;;;;;;;3.55;1.40;;;;;;;38.84;11.72;101685.06;5078441;28;20523;-69
2022/07/18 13:05:31;;;;;;;2.33;1.42;;;;;;;38.83;11.52;101675.69;5066716;28;20504;-69
2022/07/18 13:07:59;;;;;;;2.50;1.20;;;;;;;38.82;11.56;101681.63;5069709;28;20602;-69
2022/07/18 13:10:27;;;;;;;4.25;1.55;;;;;;;38.79;11.56;101679.38;5067452;28;20391;-69
2022/07/18 13:12:55;;;;;;;3.03;1.40;;;;;;;38.78;11.71;101664.31;5068904;28;20161;-69
2022/07/18 13:15:23;;;;;;;2.40;1.40;;;;;;;38.77;11.91;101673.94;5067187;28;20040;-69
2022/07/18 13:17:53;;;;;;;3.08;1.30;;;;;;;38.78;11.65;101667.16;5069038;28;20055;-68
2022/07/18 13:20:21;;;;;;;2.42;1.25;;;;;;;38.76;12.34;101669.41;5067801;28;20139;-69
2022/07/18 13:22:49;;;;;;;3.60;1.60;;;;;;;38.77;11.88;101664.56;5067022;28;20039;-68
2022/07/18 13:25:21;;;;;;;2.90;1.25;;;;;;;38.75;12.19;101662.00;5067424;28;20059;-69
2022/07/18 13:27:50;;;;;;;2.70;1.40;;;;;;;38.79;11.68;101659.50;5068135;28;20098;-69
2022/07/18 13:30:18;;;;;;;2.42;1.30;;;;;;;38.78;12.03;101652.09;5067257;28;20866;-69
2022/07/18 13:32:46;;;;;;;2.63;1.30;;;;;;;38.78;12.00;101661.47;5068426;28;20163;-69
2022/07/18 13:35:16;;;;;;;4.45;1.48;;;;;;;38.80;12.06;101662.03;5067042;28;20608;-69
2022/07/18 13:37:44;;;;;;;3.53;1.60;;;;;;;38.78;11.82;101650.13;5068667;28;20123;-69
2022/07/18 13:40:13;;;;;;;2.92;1.40;;;;;;;38.79;11.52;101650.97;5066521;28;20658;-68
2022/07/18 13:42:42;;;;;;;3.35;1.48;;;;;;;38.80;12.03;101647.84;5068368;28;20139;-69
2022/07/18 13:45:12;;;;;;;4.10;1.40;;;;;;;38.81;12.21;101654.38;5066947;28;20047;-69
2022/07/18 13:47:41;;;;;;;2.60;1.20;;;;;;;38.79;11.61;101648.94;5068164;28;20468;-69
2022/07/18 13:50:10;;;;;;;3.22;1.52;;;;;;;38.83;11.71;101647.31;5066880;28;20786;-69
2022/07/18 13:52:39;;;;;;;3.67;1.45;;;;;;;38.88;11.89;101651.28;5072624;28;20523;-68
2022/07/18 13:55:08;;;;;;;2.40;1.38;;;;;;;38.88;11.57;101645.63;5086982;28;20044;-69
2022/07/18 13:57:37;;;;;;;2.45;1.20;;;;;;;38.89;11.92;101641.66;5087423;28;20041;-69
2022/07/18 14:00:07;;;;;;;2.92;1.25;;;;;;;38.91;11.33;101642.25;5083245;28;20048;-69
2022/07/18 14:02:35;;;;;;;3.27;1.20;;;;;;;38.90;11.95;101641.38;5067877;28;20048;-68
2022/07/18 14:05:05;;;;;;;3.50;1.30;;;;;;;38.95;11.54;101637.78;5067086;28;20045;-68
2022/07/18 14:07:44;;;;;;;2.70;1.20;;;;;;;38.99;11.50;101634.09;5068038;28;20044;-68
2022/07/18 14:10:14;;;;;;;2.50;1.40;;;;;;;38.98;11.64;101632.38;5048886;28;20052;-69
2022/07/18 14:12:42;;;;;;;2.33;1.25;;;;;;;39.00;11.43;101630.13;5067280;28;20044;-70
2022/07/18 14:15:11;;;;;;;2.50;1.40;;;;;;;39.01;11.54;101634.69;5066535;28;20080;-69
2022/07/18 14:17:39;;;;;;;1.67;1.10;;;;;;;39.03;11.38;101625.91;5067348;28;20048;-69
2022/07/18 14:20:09;;;;;;;3.17;1.23;;;;;;;39.05;11.63;101626.47;5066812;28;20416;-69
2022/07/18 14:22:38;;;;;;;2.25;1.27;;;;;;;39.06;11.15;101625.34;5066816;28;20051;-68
2022/07/18 14:25:09;;;;;;;3.08;1.33;;;;;;;39.09;11.22;101627.66;5071776;28;20044;-69
2022/07/18 14:27:38;;;;;;;3.28;1.35;;;;;;;39.07;11.58;101625.06;5074818;28;20051;-69